MAS100 LFPG-WMKK
Flight info
| Callsign | MAS100 |
|---|---|
| Flight time | N/A |
| Altitude | 31000 |
| Route | BUBLI DCT LUVAL DCT MIRGU DCT BEGAR DCT TRA DCT GAMSA DCT UMVEG DCT GOTAR DCT MOPUG DCT ASNEL DCT UDROS DCT CRM DCT ROLIN/N0476F330 N644 ODILI DCT BARAD M747 SUBUT T923 ERLEV M11 RODAR A909 BIBIM B450 MAMED B449 DOLOS B475 NINOP A909 LEMOD N644 PAGMA/N0486F370 N644 DI A466 JHANG M875 KAKID M770 OBMOG L515 PUT B579 VPL Y503 RINBA Y507 KAKAK KAKAK1G |
| Aircraft | B744/H-SDE3FGHIM1M2RWXY/LB1 |
Departure
| Time | N/A |
|---|---|
| Airport | Charles de Gaulle International Airport (LFPG) |
Arrival
| Time | 2026-05-03 23:08 |
|---|---|
| Airport | Kuala Lumpur International Airport (WMKK) |
| Time | Latitude | Longitude | Altitude | Speed | Heading |
|---|---|---|---|---|---|
| 2026-05-03 20:15 | 18.72201 | 89.15882 | 36838 ft | 502 kts | 137° |
| 2026-05-03 20:15 | 18.67282 | 89.21128 | 36839 ft | 502 kts | 137° |
| 2026-05-03 20:16 | 18.62392 | 89.26339 | 36840 ft | 502 kts | 137° |
| 2026-05-03 20:16 | 18.57483 | 89.31565 | 36840 ft | 501 kts | 137° |
| 2026-05-03 20:17 | 18.52572 | 89.36788 | 36841 ft | 501 kts | 137° |
| 2026-05-03 20:17 | 18.47657 | 89.42012 | 36842 ft | 501 kts | 137° |
| 2026-05-03 20:18 | 18.42748 | 89.47224 | 36842 ft | 501 kts | 137° |
| 2026-05-03 20:18 | 18.37846 | 89.52425 | 36842 ft | 500 kts | 137° |
| 2026-05-03 20:19 | 18.32930 | 89.57635 | 36843 ft | 500 kts | 137° |
| 2026-05-03 20:19 | 18.28023 | 89.62832 | 36844 ft | 500 kts | 137° |
| 2026-05-03 20:20 | 18.23150 | 89.67988 | 36844 ft | 500 kts | 137° |
| 2026-05-03 20:20 | 18.18241 | 89.73179 | 36840 ft | 500 kts | 137° |
| 2026-05-03 20:21 | 18.14130 | 89.77522 | 36840 ft | 500 kts | 137° |
| 2026-05-03 20:21 | 18.09257 | 89.82666 | 36841 ft | 500 kts | 137° |
| 2026-05-03 20:22 | 18.04350 | 89.87842 | 36841 ft | 499 kts | 137° |
| 2026-05-03 20:22 | 17.99444 | 89.93013 | 36841 ft | 499 kts | 137° |
| 2026-05-03 20:23 | 17.94530 | 89.98187 | 36842 ft | 499 kts | 137° |
| 2026-05-03 20:23 | 17.89620 | 90.03355 | 36844 ft | 499 kts | 137° |
| 2026-05-03 20:24 | 17.84710 | 90.08516 | 36843 ft | 499 kts | 137° |
| 2026-05-03 20:24 | 17.79795 | 90.13678 | 36852 ft | 499 kts | 137° |
| 2026-05-03 20:25 | 17.74916 | 90.18799 | 36853 ft | 499 kts | 137° |
| 2026-05-03 20:25 | 17.70003 | 90.23951 | 36854 ft | 500 kts | 137° |
| 2026-05-03 20:26 | 17.65086 | 90.29104 | 36854 ft | 500 kts | 137° |
| 2026-05-03 20:26 | 17.60174 | 90.34262 | 36854 ft | 499 kts | 137° |
| 2026-05-03 20:27 | 17.55248 | 90.39415 | 36855 ft | 499 kts | 137° |
| 2026-05-03 20:27 | 17.50328 | 90.44553 | 36855 ft | 499 kts | 137° |
| 2026-05-03 20:28 | 17.45411 | 90.49684 | 36855 ft | 499 kts | 137° |
| 2026-05-03 20:28 | 17.40489 | 90.54819 | 36855 ft | 499 kts | 137° |
| 2026-05-03 20:29 | 17.35622 | 90.60009 | 36856 ft | 499 kts | 136° |
| 2026-05-03 20:29 | 17.30787 | 90.65174 | 36856 ft | 499 kts | 136° |
| 2026-05-03 20:30 | 17.25920 | 90.70365 | 36857 ft | 500 kts | 136° |
| 2026-05-03 20:30 | 17.21047 | 90.75557 | 36857 ft | 499 kts | 136° |
| 2026-05-03 20:31 | 17.16182 | 90.80737 | 36857 ft | 499 kts | 136° |
| 2026-05-03 20:31 | 17.11325 | 90.85933 | 36857 ft | 499 kts | 136° |
| 2026-05-03 20:32 | 17.06460 | 90.91120 | 36859 ft | 500 kts | 136° |
| 2026-05-03 20:32 | 17.01593 | 90.96298 | 36858 ft | 499 kts | 136° |
| 2026-05-03 20:33 | 16.96726 | 91.01470 | 36859 ft | 499 kts | 136° |
| 2026-05-03 20:33 | 16.91886 | 91.06610 | 36865 ft | 499 kts | 136° |
| 2026-05-03 20:34 | 16.87021 | 91.11773 | 36868 ft | 499 kts | 136° |
| 2026-05-03 20:34 | 16.82157 | 91.16930 | 36868 ft | 499 kts | 136° |
| 2026-05-03 20:35 | 16.77284 | 91.22093 | 36869 ft | 499 kts | 136° |
| 2026-05-03 20:35 | 16.72412 | 91.27250 | 36866 ft | 499 kts | 136° |
| 2026-05-03 20:36 | 16.67541 | 91.32403 | 36866 ft | 499 kts | 136° |
| 2026-05-03 20:36 | 16.62665 | 91.37557 | 36867 ft | 498 kts | 136° |
| 2026-05-03 20:37 | 16.57829 | 91.42665 | 36868 ft | 498 kts | 136° |
| 2026-05-03 20:37 | 16.52955 | 91.47808 | 36868 ft | 498 kts | 136° |
| 2026-05-03 20:38 | 16.48087 | 91.52942 | 36869 ft | 498 kts | 136° |
| 2026-05-03 20:38 | 16.43219 | 91.58073 | 36869 ft | 498 kts | 136° |
| 2026-05-03 20:39 | 16.38346 | 91.63204 | 36870 ft | 497 kts | 136° |
| 2026-05-03 20:39 | 16.33478 | 91.68326 | 36870 ft | 497 kts | 136° |
| 2026-05-03 20:40 | 16.28637 | 91.73416 | 36871 ft | 497 kts | 136° |
| 2026-05-03 20:40 | 16.23781 | 91.78530 | 36871 ft | 497 kts | 136° |
| 2026-05-03 20:41 | 16.18907 | 91.83650 | 36878 ft | 497 kts | 136° |
| 2026-05-03 20:41 | 16.14038 | 91.88754 | 36881 ft | 497 kts | 136° |
| 2026-05-03 20:42 | 16.09164 | 91.93859 | 36881 ft | 497 kts | 136° |
| 2026-05-03 20:42 | 16.04294 | 91.98956 | 36882 ft | 497 kts | 136° |
| 2026-05-03 20:43 | 15.99423 | 92.04055 | 36882 ft | 497 kts | 137° |
| 2026-05-03 20:43 | 15.94583 | 92.09113 | 36882 ft | 497 kts | 137° |
| 2026-05-03 20:44 | 15.89705 | 92.14209 | 36882 ft | 497 kts | 136° |
| 2026-05-03 20:44 | 15.84830 | 92.19298 | 36881 ft | 497 kts | 136° |
| 2026-05-03 20:45 | 15.79959 | 92.24381 | 36883 ft | 497 kts | 137° |
| 2026-05-03 20:45 | 15.75093 | 92.29474 | 36883 ft | 497 kts | 136° |
| 2026-05-03 20:46 | 15.70226 | 92.34556 | 36883 ft | 496 kts | 137° |
| 2026-05-03 20:46 | 15.65351 | 92.39640 | 36883 ft | 496 kts | 136° |
| 2026-05-03 20:47 | 15.60490 | 92.44717 | 36883 ft | 496 kts | 137° |
| 2026-05-03 20:47 | 15.55605 | 92.49798 | 36884 ft | 497 kts | 137° |
| 2026-05-03 20:48 | 15.50722 | 92.54871 | 36884 ft | 497 kts | 137° |
| 2026-05-03 20:48 | 15.45872 | 92.59908 | 36884 ft | 496 kts | 137° |
| 2026-05-03 20:49 | 15.41011 | 92.64998 | 36884 ft | 496 kts | 136° |
| 2026-05-03 20:49 | 15.36277 | 92.70218 | 36885 ft | 497 kts | 135° |
| 2026-05-03 20:50 | 15.31551 | 92.75425 | 36881 ft | 497 kts | 135° |
| 2026-05-03 20:50 | 15.26800 | 92.80642 | 36879 ft | 497 kts | 135° |
| 2026-05-03 20:51 | 15.22050 | 92.85847 | 36879 ft | 497 kts | 135° |
| 2026-05-03 20:51 | 15.17327 | 92.91030 | 36879 ft | 497 kts | 135° |
| 2026-05-03 20:52 | 15.12579 | 92.96246 | 36880 ft | 497 kts | 135° |
| 2026-05-03 20:52 | 15.07835 | 93.01444 | 36880 ft | 497 kts | 135° |
| 2026-05-03 20:53 | 15.03083 | 93.06645 | 36880 ft | 496 kts | 135° |
| 2026-05-03 20:53 | 14.98333 | 93.11839 | 36880 ft | 497 kts | 135° |
| 2026-05-03 20:54 | 14.93579 | 93.17031 | 36880 ft | 497 kts | 135° |
| 2026-05-03 20:54 | 14.86443 | 93.24821 | 36880 ft | 497 kts | 136° |
| 2026-05-03 20:55 | 14.81720 | 93.29971 | 36880 ft | 497 kts | 136° |
| 2026-05-03 20:55 | 14.76959 | 93.35159 | 36880 ft | 497 kts | 136° |
| 2026-05-03 20:56 | 14.72198 | 93.40344 | 36880 ft | 497 kts | 136° |
| 2026-05-03 20:56 | 14.67433 | 93.45530 | 36880 ft | 497 kts | 136° |
| 2026-05-03 20:57 | 14.62670 | 93.50710 | 36881 ft | 497 kts | 136° |
| 2026-05-03 20:57 | 14.57933 | 93.55858 | 36881 ft | 497 kts | 136° |
| 2026-05-03 20:58 | 14.53177 | 93.61023 | 36881 ft | 497 kts | 136° |
| 2026-05-03 20:58 | 14.48407 | 93.66201 | 36881 ft | 497 kts | 136° |
| 2026-05-03 20:59 | 14.43636 | 93.71376 | 36881 ft | 497 kts | 136° |
| 2026-05-03 20:59 | 14.38863 | 93.76550 | 36881 ft | 497 kts | 136° |
| 2026-05-03 21:00 | 14.35699 | 93.79976 | 36881 ft | 497 kts | 136° |
| 2026-05-03 21:00 | 14.29340 | 93.86861 | 36881 ft | 497 kts | 136° |
| 2026-05-03 21:01 | 14.24576 | 93.92015 | 36881 ft | 497 kts | 136° |
| 2026-05-03 21:01 | 14.19798 | 93.97180 | 36881 ft | 497 kts | 136° |
| 2026-05-03 21:02 | 14.15027 | 94.02335 | 36881 ft | 497 kts | 136° |
| 2026-05-03 21:02 | 14.10248 | 94.07495 | 36881 ft | 497 kts | 136° |
| 2026-05-03 21:03 | 14.05499 | 94.12618 | 36881 ft | 497 kts | 136° |
| 2026-05-03 21:03 | 14.00684 | 94.17811 | 36881 ft | 497 kts | 136° |
| 2026-05-03 21:04 | 13.95934 | 94.22930 | 36881 ft | 497 kts | 136° |
| 2026-05-03 21:04 | 13.91148 | 94.28083 | 36881 ft | 497 kts | 136° |
| 2026-05-03 21:05 | 13.86363 | 94.33232 | 36880 ft | 497 kts | 136° |
| 2026-05-03 21:05 | 13.81586 | 94.38371 | 36880 ft | 497 kts | 136° |
| 2026-05-03 21:06 | 13.76831 | 94.43482 | 36880 ft | 497 kts | 136° |
| 2026-05-03 21:06 | 13.72052 | 94.48615 | 36880 ft | 497 kts | 136° |
| 2026-05-03 21:07 | 13.67274 | 94.53745 | 36880 ft | 496 kts | 136° |
| 2026-05-03 21:07 | 13.62493 | 94.58873 | 36880 ft | 496 kts | 136° |
| 2026-05-03 21:08 | 13.58520 | 94.63133 | 36879 ft | 496 kts | 136° |
| 2026-05-03 21:08 | 13.53736 | 94.68260 | 36879 ft | 496 kts | 136° |
| 2026-05-03 21:09 | 13.48954 | 94.73381 | 36948 ft | 500 kts | 136° |
| 2026-05-03 21:09 | 13.46538 | 94.75967 | 37081 ft | 504 kts | 136° |
| 2026-05-03 21:09 | 13.44099 | 94.78577 | 37293 ft | 506 kts | 136° |
| 2026-05-03 21:10 | 13.41659 | 94.81188 | 37558 ft | 507 kts | 136° |
| 2026-05-03 21:10 | 13.39215 | 94.83801 | 37901 ft | 506 kts | 136° |
| 2026-05-03 21:10 | 13.36780 | 94.86405 | 38255 ft | 504 kts | 136° |
| 2026-05-03 21:10 | 13.34351 | 94.89001 | 38586 ft | 503 kts | 136° |
| 2026-05-03 21:11 | 13.31932 | 94.91585 | 38853 ft | 503 kts | 136° |
| 2026-05-03 21:11 | 13.29509 | 94.94173 | 39139 ft | 502 kts | 136° |
| 2026-05-03 21:11 | 13.27128 | 94.96716 | 39453 ft | 500 kts | 136° |
| 2026-05-03 21:11 | 13.24714 | 94.99292 | 39721 ft | 499 kts | 136° |
| 2026-05-03 21:12 | 13.22309 | 95.01860 | 39963 ft | 499 kts | 136° |
| 2026-05-03 21:12 | 13.19904 | 95.04424 | 40226 ft | 497 kts | 135° |
| 2026-05-03 21:12 | 13.17509 | 95.06979 | 40437 ft | 497 kts | 135° |
| 2026-05-03 21:12 | 13.15116 | 95.09531 | 40650 ft | 496 kts | 135° |
| 2026-05-03 21:13 | 13.12730 | 95.12074 | 40845 ft | 495 kts | 135° |
| 2026-05-03 21:13 | 13.10335 | 95.14626 | 40880 ft | 495 kts | 135° |
| 2026-05-03 21:13 | 13.05564 | 95.19715 | 40874 ft | 494 kts | 135° |
| 2026-05-03 21:14 | 13.00793 | 95.24799 | 40874 ft | 494 kts | 135° |
| 2026-05-03 21:14 | 12.96048 | 95.29844 | 40873 ft | 494 kts | 135° |
| 2026-05-03 21:15 | 12.91271 | 95.34919 | 40872 ft | 494 kts | 135° |
| 2026-05-03 21:15 | 12.86521 | 95.39963 | 40871 ft | 494 kts | 135° |
| 2026-05-03 21:16 | 12.81725 | 95.45003 | 40870 ft | 493 kts | 136° |
| 2026-05-03 21:16 | 12.76880 | 95.49991 | 40869 ft | 494 kts | 136° |
| 2026-05-03 21:17 | 12.72858 | 95.54139 | 40868 ft | 494 kts | 136° |
| 2026-05-03 21:17 | 12.67199 | 95.59977 | 40867 ft | 493 kts | 136° |
| 2026-05-03 21:18 | 12.62362 | 95.64967 | 40866 ft | 493 kts | 136° |
| 2026-05-03 21:18 | 12.57571 | 95.69921 | 40848 ft | 493 kts | 136° |
| 2026-05-03 21:19 | 12.52742 | 95.74911 | 40843 ft | 493 kts | 136° |
| 2026-05-03 21:19 | 12.47910 | 95.79897 | 40841 ft | 493 kts | 136° |
| 2026-05-03 21:20 | 12.43076 | 95.84879 | 40839 ft | 493 kts | 136° |
| 2026-05-03 21:20 | 12.38249 | 95.89851 | 40838 ft | 492 kts | 136° |
| 2026-05-03 21:21 | 12.33416 | 95.94827 | 40836 ft | 492 kts | 136° |
| 2026-05-03 21:21 | 12.28585 | 95.99798 | 40832 ft | 492 kts | 136° |
| 2026-05-03 21:22 | 12.23760 | 96.04759 | 40829 ft | 492 kts | 136° |
| 2026-05-03 21:22 | 12.18934 | 96.09719 | 40827 ft | 492 kts | 136° |
| 2026-05-03 21:23 | 12.14139 | 96.14644 | 40834 ft | 492 kts | 136° |
| 2026-05-03 21:23 | 12.09317 | 96.19606 | 40834 ft | 492 kts | 136° |
| 2026-05-03 21:24 | 12.04484 | 96.24564 | 40833 ft | 492 kts | 136° |
| 2026-05-03 21:24 | 11.99655 | 96.29514 | 40831 ft | 492 kts | 136° |
| 2026-05-03 21:25 | 11.94825 | 96.34462 | 40830 ft | 492 kts | 136° |
| 2026-05-03 21:25 | 11.89735 | 96.39104 | 40834 ft | 490 kts | 147° |
| 2026-05-03 21:26 | 11.83823 | 96.42588 | 40827 ft | 490 kts | 154° |
| 2026-05-03 21:26 | 11.77707 | 96.45648 | 40825 ft | 489 kts | 155° |
| 2026-05-03 21:27 | 11.71603 | 96.48698 | 40825 ft | 489 kts | 155° |
| 2026-05-03 21:27 | 11.65542 | 96.51762 | 40821 ft | 489 kts | 154° |
| 2026-05-03 21:28 | 11.59455 | 96.54850 | 40818 ft | 489 kts | 154° |
| 2026-05-03 21:28 | 11.53363 | 96.57953 | 40817 ft | 489 kts | 154° |
| 2026-05-03 21:29 | 11.47272 | 96.61051 | 40816 ft | 489 kts | 154° |
| 2026-05-03 21:29 | 11.41177 | 96.64149 | 40815 ft | 489 kts | 154° |
| 2026-05-03 21:30 | 11.35088 | 96.67242 | 40814 ft | 489 kts | 154° |
| 2026-05-03 21:30 | 11.29001 | 96.70333 | 40813 ft | 489 kts | 154° |
| 2026-05-03 21:31 | 11.22905 | 96.73426 | 40812 ft | 489 kts | 154° |
| 2026-05-03 21:31 | 11.16814 | 96.76516 | 40811 ft | 489 kts | 154° |
| 2026-05-03 21:32 | 11.10763 | 96.79584 | 40810 ft | 489 kts | 154° |
| 2026-05-03 21:32 | 11.04671 | 96.82671 | 40809 ft | 489 kts | 154° |
| 2026-05-03 21:33 | 10.98570 | 96.85761 | 40808 ft | 489 kts | 154° |
| 2026-05-03 21:33 | 10.92482 | 96.88844 | 40808 ft | 489 kts | 154° |
| 2026-05-03 21:34 | 10.86390 | 96.91927 | 40807 ft | 489 kts | 154° |
| 2026-05-03 21:34 | 10.80334 | 96.94989 | 40806 ft | 489 kts | 154° |
| 2026-05-03 21:35 | 10.74253 | 96.98064 | 40805 ft | 488 kts | 154° |
| 2026-05-03 21:35 | 10.68156 | 97.01145 | 40817 ft | 488 kts | 154° |
| 2026-05-03 21:36 | 10.62066 | 97.04222 | 40818 ft | 489 kts | 154° |
| 2026-05-03 21:36 | 10.55976 | 97.07297 | 40818 ft | 489 kts | 154° |
| 2026-05-03 21:37 | 10.49878 | 97.10375 | 40817 ft | 489 kts | 154° |
| 2026-05-03 21:37 | 10.43784 | 97.13449 | 40816 ft | 489 kts | 154° |
| 2026-05-03 21:38 | 10.37729 | 97.16502 | 40815 ft | 488 kts | 154° |
| 2026-05-03 21:38 | 10.31637 | 97.19573 | 40814 ft | 489 kts | 154° |
| 2026-05-03 21:39 | 10.25534 | 97.22651 | 40813 ft | 489 kts | 154° |
| 2026-05-03 21:39 | 10.19467 | 97.25707 | 40812 ft | 489 kts | 154° |
| 2026-05-03 21:40 | 10.13340 | 97.28791 | 40811 ft | 488 kts | 154° |
| 2026-05-03 21:40 | 10.07250 | 97.31854 | 40810 ft | 489 kts | 154° |
| 2026-05-03 21:41 | 10.01182 | 97.34905 | 40809 ft | 489 kts | 154° |
| 2026-05-03 21:41 | 9.95091 | 97.37988 | 40809 ft | 489 kts | 153° |
| 2026-05-03 21:42 | 9.89005 | 97.41075 | 40809 ft | 489 kts | 153° |
| 2026-05-03 21:42 | 9.82920 | 97.44160 | 40809 ft | 489 kts | 153° |
| 2026-05-03 21:43 | 9.76822 | 97.47249 | 40809 ft | 489 kts | 153° |
| 2026-05-03 21:43 | 9.70727 | 97.50337 | 40809 ft | 489 kts | 153° |
| 2026-05-03 21:44 | 9.64638 | 97.53426 | 40809 ft | 489 kts | 153° |
| 2026-05-03 21:44 | 9.58549 | 97.56512 | 40810 ft | 489 kts | 153° |
| 2026-05-03 21:45 | 9.52497 | 97.59577 | 40811 ft | 489 kts | 153° |
| 2026-05-03 21:45 | 9.46408 | 97.62658 | 40811 ft | 488 kts | 153° |
| 2026-05-03 21:46 | 9.40327 | 97.65735 | 40812 ft | 488 kts | 153° |
| 2026-05-03 21:46 | 9.34245 | 97.68810 | 40814 ft | 488 kts | 153° |
| 2026-05-03 21:47 | 9.28169 | 97.71884 | 40815 ft | 488 kts | 153° |
| 2026-05-03 21:47 | 9.22089 | 97.74957 | 40817 ft | 488 kts | 153° |
| 2026-05-03 21:48 | 9.16054 | 97.78005 | 40818 ft | 488 kts | 153° |
| 2026-05-03 21:48 | 9.09972 | 97.81074 | 40821 ft | 488 kts | 153° |
| 2026-05-03 21:49 | 9.03883 | 97.84145 | 40823 ft | 488 kts | 153° |
| 2026-05-03 21:49 | 8.97808 | 97.87209 | 40825 ft | 488 kts | 153° |
| 2026-05-03 21:50 | 8.91729 | 97.90268 | 40827 ft | 488 kts | 153° |
| 2026-05-03 21:50 | 8.85656 | 97.93325 | 40830 ft | 488 kts | 153° |
| 2026-05-03 21:51 | 8.79581 | 97.96390 | 40832 ft | 487 kts | 153° |
| 2026-05-03 21:51 | 8.73511 | 97.99445 | 40834 ft | 487 kts | 153° |
| 2026-05-03 21:52 | 8.67438 | 98.02499 | 40855 ft | 488 kts | 153° |
| 2026-05-03 21:52 | 8.61391 | 98.05540 | 40855 ft | 488 kts | 153° |
| 2026-05-03 21:53 | 8.55316 | 98.08595 | 40854 ft | 487 kts | 153° |
| 2026-05-03 21:53 | 8.49247 | 98.11650 | 40852 ft | 487 kts | 153° |
| 2026-05-03 21:54 | 8.44197 | 98.14192 | 40851 ft | 487 kts | 153° |
| 2026-05-03 21:54 | 8.38136 | 98.17247 | 40849 ft | 487 kts | 153° |
| 2026-05-03 21:55 | 8.32069 | 98.20304 | 40848 ft | 487 kts | 153° |
| 2026-05-03 21:55 | 8.25993 | 98.23361 | 40847 ft | 487 kts | 153° |
| 2026-05-03 21:56 | 8.19921 | 98.26415 | 40847 ft | 487 kts | 153° |
| 2026-05-03 21:56 | 8.13850 | 98.29467 | 40846 ft | 487 kts | 152° |
| 2026-05-03 21:57 | 8.08225 | 98.33171 | 40847 ft | 486 kts | 142° |
| 2026-05-03 21:57 | 8.03008 | 98.37506 | 40847 ft | 486 kts | 139° |
| 2026-05-03 21:58 | 7.97805 | 98.41867 | 40848 ft | 485 kts | 140° |
| 2026-05-03 21:58 | 7.92585 | 98.46185 | 40851 ft | 485 kts | 140° |
| 2026-05-03 21:59 | 7.87350 | 98.50493 | 40854 ft | 485 kts | 140° |
| 2026-05-03 21:59 | 7.82122 | 98.54791 | 40857 ft | 485 kts | 140° |
| 2026-05-03 22:00 | 7.76891 | 98.59091 | 40860 ft | 485 kts | 140° |
| 2026-05-03 22:00 | 7.71658 | 98.63392 | 40862 ft | 485 kts | 140° |
| 2026-05-03 22:01 | 7.66421 | 98.67699 | 40864 ft | 485 kts | 140° |
| 2026-05-03 22:01 | 7.61189 | 98.71999 | 40865 ft | 485 kts | 140° |
| 2026-05-03 22:02 | 7.55980 | 98.76278 | 40866 ft | 485 kts | 140° |
| 2026-05-03 22:02 | 7.50791 | 98.80539 | 40866 ft | 485 kts | 140° |
| 2026-05-03 22:03 | 7.45558 | 98.84838 | 40862 ft | 485 kts | 140° |
| 2026-05-03 22:03 | 7.40323 | 98.89128 | 40862 ft | 485 kts | 140° |
| 2026-05-03 22:04 | 7.35091 | 98.93418 | 40861 ft | 485 kts | 140° |
| 2026-05-03 22:04 | 7.29858 | 98.97707 | 40862 ft | 485 kts | 140° |
| 2026-05-03 22:05 | 7.24622 | 99.01999 | 40870 ft | 485 kts | 140° |
| 2026-05-03 22:05 | 7.19383 | 99.06293 | 40870 ft | 485 kts | 140° |
| 2026-05-03 22:06 | 7.14181 | 99.10563 | 40869 ft | 485 kts | 140° |
| 2026-05-03 22:06 | 7.08949 | 99.14851 | 40868 ft | 485 kts | 140° |
| 2026-05-03 22:07 | 7.03714 | 99.19139 | 40867 ft | 485 kts | 140° |
| 2026-05-03 22:07 | 6.98478 | 99.23427 | 40866 ft | 485 kts | 140° |
| 2026-05-03 22:08 | 6.93242 | 99.27714 | 40864 ft | 485 kts | 140° |
| 2026-05-03 22:08 | 6.88005 | 99.32000 | 40862 ft | 485 kts | 140° |
| 2026-05-03 22:09 | 6.82796 | 99.36261 | 40860 ft | 485 kts | 140° |
| 2026-05-03 22:10 | 6.74944 | 99.42683 | 40857 ft | 485 kts | 140° |
| 2026-05-03 22:10 | 6.69708 | 99.46967 | 40855 ft | 485 kts | 140° |
| 2026-05-03 22:11 | 6.64468 | 99.51251 | 40852 ft | 485 kts | 140° |
| 2026-05-03 22:11 | 6.59226 | 99.55533 | 40850 ft | 485 kts | 140° |
| 2026-05-03 22:12 | 6.53988 | 99.59812 | 40847 ft | 485 kts | 140° |
| 2026-05-03 22:12 | 6.48772 | 99.64069 | 40847 ft | 485 kts | 140° |
| 2026-05-03 22:13 | 6.43477 | 99.68286 | 40846 ft | 485 kts | 142° |
| 2026-05-03 22:13 | 6.38100 | 99.72410 | 40846 ft | 485 kts | 142° |
| 2026-05-03 22:14 | 6.32983 | 99.76843 | 40847 ft | 485 kts | 135° |
| 2026-05-03 22:14 | 6.28304 | 99.81737 | 40847 ft | 485 kts | 133° |
| 2026-05-03 22:15 | 6.23642 | 99.86589 | 40846 ft | 485 kts | 134° |
| 2026-05-03 22:15 | 6.18896 | 99.91474 | 40846 ft | 486 kts | 134° |
| 2026-05-03 22:16 | 6.14201 | 99.96301 | 40846 ft | 485 kts | 134° |
| 2026-05-03 22:16 | 6.09473 | 100.01160 | 40846 ft | 485 kts | 134° |
| 2026-05-03 22:17 | 6.04731 | 100.05997 | 40846 ft | 485 kts | 134° |
| 2026-05-03 22:17 | 5.99994 | 100.10833 | 40846 ft | 485 kts | 134° |
| 2026-05-03 22:18 | 5.95258 | 100.15668 | 40846 ft | 485 kts | 134° |
| 2026-05-03 22:18 | 5.90517 | 100.20508 | 40846 ft | 485 kts | 134° |
| 2026-05-03 22:19 | 5.85777 | 100.25348 | 40846 ft | 485 kts | 134° |
| 2026-05-03 22:19 | 5.81046 | 100.30184 | 40846 ft | 485 kts | 134° |
| 2026-05-03 22:20 | 5.76314 | 100.35016 | 40846 ft | 485 kts | 134° |
| 2026-05-03 22:20 | 5.71609 | 100.39817 | 40847 ft | 485 kts | 134° |
| 2026-05-03 22:21 | 5.66879 | 100.44643 | 40846 ft | 485 kts | 134° |
| 2026-05-03 22:21 | 5.62137 | 100.49479 | 40846 ft | 485 kts | 134° |
| 2026-05-03 22:22 | 5.57411 | 100.54302 | 40846 ft | 484 kts | 134° |
| 2026-05-03 22:22 | 5.52684 | 100.59122 | 40846 ft | 484 kts | 134° |
| 2026-05-03 22:23 | 5.47956 | 100.63940 | 40847 ft | 484 kts | 134° |
| 2026-05-03 22:23 | 5.43237 | 100.68748 | 40847 ft | 484 kts | 134° |
| 2026-05-03 22:24 | 5.38270 | 100.73282 | 40844 ft | 483 kts | 148° |
| 2026-05-03 22:24 | 5.35253 | 100.74645 | 40856 ft | 484 kts | 161° |
| 2026-05-03 22:24 | 5.32011 | 100.75597 | 40850 ft | 486 kts | 165° |
| 2026-05-03 22:25 | 5.25388 | 100.76935 | 40850 ft | 486 kts | 171° |
| 2026-05-03 22:25 | 5.18687 | 100.77910 | 40852 ft | 486 kts | 171° |
| 2026-05-03 22:26 | 5.12016 | 100.78937 | 40854 ft | 486 kts | 171° |
| 2026-05-03 22:26 | 5.05330 | 100.79984 | 40856 ft | 485 kts | 171° |
| 2026-05-03 22:27 | 4.98658 | 100.81030 | 40858 ft | 485 kts | 171° |
| 2026-05-03 22:27 | 4.91996 | 100.82082 | 40860 ft | 485 kts | 170° |
| 2026-05-03 22:28 | 4.85332 | 100.83140 | 40863 ft | 485 kts | 170° |
| 2026-05-03 22:28 | 4.78662 | 100.84199 | 40864 ft | 484 kts | 170° |
| 2026-05-03 22:29 | 4.74394 | 100.84878 | 40866 ft | 484 kts | 170° |
| 2026-05-03 22:32 | 4.71947 | 100.85266 | 40866 ft | 484 kts | 170° |
| 2026-05-03 22:32 | 4.65310 | 100.86320 | 40868 ft | 484 kts | 170° |
| 2026-05-03 22:33 | 4.58650 | 100.87377 | 40868 ft | 484 kts | 170° |
| 2026-05-03 22:33 | 4.55323 | 100.87905 | 40738 ft | 485 kts | 170° |
| 2026-05-03 22:33 | 4.51983 | 100.88435 | 40225 ft | 484 kts | 170° |
| 2026-05-03 22:33 | 4.48678 | 100.88963 | 39737 ft | 479 kts | 169° |
| 2026-05-03 22:34 | 4.45487 | 100.89826 | 39256 ft | 473 kts | 160° |
| 2026-05-03 22:34 | 4.42430 | 100.91026 | 38774 ft | 468 kts | 156° |
| 2026-05-03 22:34 | 4.39478 | 100.92383 | 38292 ft | 464 kts | 154° |
| 2026-05-03 22:34 | 4.36595 | 100.93818 | 37816 ft | 461 kts | 153° |
| 2026-05-03 22:35 | 4.33745 | 100.95256 | 37344 ft | 457 kts | 153° |
| 2026-05-03 22:35 | 4.30943 | 100.96650 | 36880 ft | 453 kts | 153° |
| 2026-05-03 22:35 | 4.28120 | 100.98041 | 36411 ft | 450 kts | 153° |
| 2026-05-03 22:35 | 4.25319 | 100.99413 | 35943 ft | 447 kts | 153° |
| 2026-05-03 22:36 | 4.22537 | 101.00773 | 35476 ft | 443 kts | 153° |
| 2026-05-03 22:36 | 4.19773 | 101.02121 | 34981 ft | 440 kts | 153° |
| 2026-05-03 22:36 | 4.17023 | 101.03462 | 34485 ft | 438 kts | 153° |
| 2026-05-03 22:36 | 4.14294 | 101.04792 | 33989 ft | 435 kts | 153° |
| 2026-05-03 22:37 | 4.11571 | 101.06119 | 33492 ft | 433 kts | 153° |
| 2026-05-03 22:37 | 4.08874 | 101.07434 | 32997 ft | 430 kts | 153° |
| 2026-05-03 22:37 | 4.06190 | 101.08741 | 32501 ft | 427 kts | 153° |
| 2026-05-03 22:37 | 4.03520 | 101.10042 | 32000 ft | 425 kts | 153° |
| 2026-05-03 22:38 | 4.01763 | 101.10899 | 31668 ft | 423 kts | 153° |
| 2026-05-03 22:38 | 3.99122 | 101.12184 | 31170 ft | 421 kts | 153° |
| 2026-05-03 22:38 | 3.95646 | 101.13877 | 30514 ft | 417 kts | 153° |
| 2026-05-03 22:38 | 3.93041 | 101.15145 | 30016 ft | 415 kts | 153° |
| 2026-05-03 22:39 | 3.91288 | 101.15998 | 29681 ft | 413 kts | 153° |
| 2026-05-03 22:39 | 3.88739 | 101.17238 | 29187 ft | 411 kts | 153° |
| 2026-05-03 22:39 | 3.86172 | 101.18488 | 28684 ft | 409 kts | 153° |
| 2026-05-03 22:39 | 3.83622 | 101.19729 | 28181 ft | 406 kts | 153° |
| 2026-05-03 22:40 | 3.81084 | 101.20963 | 27678 ft | 404 kts | 153° |
| 2026-05-03 22:40 | 3.78571 | 101.22223 | 27168 ft | 401 kts | 148° |
| 2026-05-03 22:40 | 3.76325 | 101.23851 | 26762 ft | 395 kts | 139° |
| 2026-05-03 22:40 | 3.74382 | 101.25606 | 26555 ft | 387 kts | 135° |
| 2026-05-03 22:41 | 3.72492 | 101.27516 | 26331 ft | 386 kts | 133° |
| 2026-05-03 22:41 | 3.70661 | 101.29494 | 26110 ft | 386 kts | 131° |
| 2026-05-03 22:41 | 3.68856 | 101.31476 | 25889 ft | 384 kts | 131° |
| 2026-05-03 22:41 | 3.67046 | 101.33444 | 25671 ft | 383 kts | 132° |
| 2026-05-03 22:42 | 3.65236 | 101.35397 | 25453 ft | 382 kts | 132° |
| 2026-05-03 22:42 | 3.63446 | 101.37318 | 25238 ft | 381 kts | 132° |
| 2026-05-03 22:42 | 3.61638 | 101.39254 | 25022 ft | 380 kts | 132° |
| 2026-05-03 22:42 | 3.59837 | 101.41177 | 24806 ft | 378 kts | 132° |
| 2026-05-03 22:43 | 3.58043 | 101.43093 | 24591 ft | 376 kts | 132° |
| 2026-05-03 22:43 | 3.56253 | 101.45003 | 24378 ft | 375 kts | 132° |
| 2026-05-03 22:43 | 3.54466 | 101.46908 | 24167 ft | 374 kts | 132° |
| 2026-05-03 22:43 | 3.52686 | 101.48807 | 23955 ft | 373 kts | 132° |
| 2026-05-03 22:44 | 3.51147 | 101.50449 | 23771 ft | 372 kts | 132° |
| 2026-05-03 22:44 | 3.49360 | 101.52355 | 23557 ft | 370 kts | 132° |
| 2026-05-03 22:44 | 3.47588 | 101.54246 | 23345 ft | 369 kts | 132° |
| 2026-05-03 22:44 | 3.45856 | 101.56093 | 23137 ft | 368 kts | 132° |
| 2026-05-03 22:45 | 3.44113 | 101.57951 | 22927 ft | 366 kts | 132° |
| 2026-05-03 22:45 | 3.42373 | 101.59805 | 22718 ft | 365 kts | 132° |
| 2026-05-03 22:45 | 3.40642 | 101.61649 | 22511 ft | 363 kts | 132° |
| 2026-05-03 22:45 | 3.38908 | 101.63497 | 22304 ft | 362 kts | 132° |
| 2026-05-03 22:46 | 3.37189 | 101.65327 | 22099 ft | 361 kts | 132° |
| 2026-05-03 22:46 | 3.35474 | 101.67155 | 21893 ft | 359 kts | 132° |
| 2026-05-03 22:46 | 3.33767 | 101.68973 | 21689 ft | 358 kts | 132° |
| 2026-05-03 22:46 | 3.32065 | 101.70785 | 21486 ft | 356 kts | 132° |
| 2026-05-03 22:47 | 3.30369 | 101.72592 | 21284 ft | 355 kts | 132° |
| 2026-05-03 22:47 | 3.28678 | 101.74391 | 21082 ft | 354 kts | 132° |
| 2026-05-03 22:47 | 3.26999 | 101.76188 | 20881 ft | 353 kts | 131° |
| 2026-05-03 22:47 | 3.25399 | 101.78037 | 20682 ft | 351 kts | 128° |
| 2026-05-03 22:48 | 3.23868 | 101.79935 | 20482 ft | 350 kts | 127° |
| 2026-05-03 22:48 | 3.22350 | 101.81835 | 20284 ft | 348 kts | 127° |
| 2026-05-03 22:48 | 3.20845 | 101.83693 | 20088 ft | 347 kts | 128° |
| 2026-05-03 22:48 | 3.19323 | 101.85559 | 19892 ft | 345 kts | 128° |
| 2026-05-03 22:49 | 3.17803 | 101.87417 | 19695 ft | 344 kts | 128° |
| 2026-05-03 22:49 | 3.16291 | 101.89264 | 19501 ft | 343 kts | 128° |
| 2026-05-03 22:49 | 3.14796 | 101.91120 | 19302 ft | 340 kts | 124° |
| 2026-05-03 22:49 | 3.13614 | 101.93134 | 19120 ft | 332 kts | 115° |
| 2026-05-03 22:50 | 3.12710 | 101.95251 | 18931 ft | 331 kts | 110° |
| 2026-05-03 22:50 | 3.11953 | 101.97424 | 18739 ft | 330 kts | 107° |
| 2026-05-03 22:50 | 3.11131 | 101.99564 | 18552 ft | 328 kts | 114° |
| 2026-05-03 22:50 | 3.10047 | 102.01570 | 18361 ft | 327 kts | 120° |
| 2026-05-03 22:51 | 3.08813 | 102.03479 | 18174 ft | 327 kts | 122° |
| 2026-05-03 22:51 | 3.07450 | 102.05298 | 17985 ft | 327 kts | 129° |
| 2026-05-03 22:51 | 3.05848 | 102.06916 | 17802 ft | 327 kts | 135° |
| 2026-05-03 22:51 | 3.04135 | 102.08414 | 17616 ft | 327 kts | 137° |
| 2026-05-03 22:52 | 3.02372 | 102.09854 | 17428 ft | 327 kts | 141° |
| 2026-05-03 22:52 | 3.00448 | 102.11084 | 17243 ft | 328 kts | 148° |
| 2026-05-03 22:52 | 2.98459 | 102.12107 | 17061 ft | 328 kts | 151° |
| 2026-05-03 22:52 | 2.96379 | 102.13088 | 16876 ft | 328 kts | 154° |
| 2026-05-03 22:53 | 2.94227 | 102.13860 | 16682 ft | 329 kts | 161° |
| 2026-05-03 22:53 | 2.92005 | 102.14381 | 16495 ft | 329 kts | 166° |
| 2026-05-03 22:53 | 2.89759 | 102.14803 | 16317 ft | 328 kts | 168° |
| 2026-05-03 22:53 | 2.87484 | 102.15069 | 16131 ft | 330 kts | 175° |
| 2026-05-03 22:54 | 2.85199 | 102.15040 | 15942 ft | 328 kts | 181° |
| 2026-05-03 22:54 | 2.82918 | 102.14884 | 15750 ft | 329 kts | 182° |
| 2026-05-03 22:54 | 2.80645 | 102.14670 | 15562 ft | 328 kts | 184° |
| 2026-05-03 22:54 | 2.78445 | 102.14120 | 15392 ft | 326 kts | 203° |
| 2026-05-03 22:55 | 2.76574 | 102.12763 | 15216 ft | 339 kts | 225° |
| 2026-05-03 22:55 | 2.75328 | 102.10805 | 15027 ft | 331 kts | 248° |
| 2026-05-03 22:55 | 2.74906 | 102.08572 | 14847 ft | 327 kts | 269° |
| 2026-05-03 22:55 | 2.75247 | 102.06359 | 14696 ft | 328 kts | 286° |
| 2026-05-03 22:56 | 2.76068 | 102.04237 | 14519 ft | 326 kts | 295° |
| 2026-05-03 22:56 | 2.77113 | 102.02243 | 14322 ft | 322 kts | 301° |
| 2026-05-03 22:56 | 2.78268 | 102.00315 | 14121 ft | 324 kts | 302° |
| 2026-05-03 22:56 | 2.79418 | 101.98391 | 13924 ft | 319 kts | 301° |
| 2026-05-03 22:57 | 2.80510 | 101.96481 | 13758 ft | 317 kts | 301° |
| 2026-05-03 22:57 | 2.81563 | 101.94489 | 13563 ft | 326 kts | 292° |
| 2026-05-03 22:57 | 2.81953 | 101.92309 | 13359 ft | 317 kts | 270° |
| 2026-05-03 22:57 | 2.81453 | 101.90179 | 13228 ft | 317 kts | 246° |
| 2026-05-03 22:58 | 2.80163 | 101.88406 | 13056 ft | 316 kts | 224° |
| 2026-05-03 22:58 | 2.78323 | 101.87284 | 12782 ft | 307 kts | 200° |
| 2026-05-03 22:58 | 2.76265 | 101.86881 | 12588 ft | 296 kts | 184° |
| 2026-05-03 22:58 | 2.74224 | 101.86889 | 12228 ft | 293 kts | 176° |
| 2026-05-03 22:59 | 2.72202 | 101.87056 | 11880 ft | 289 kts | 174° |
| 2026-05-03 22:59 | 2.70233 | 101.87240 | 11505 ft | 288 kts | 175° |
| 2026-05-03 22:59 | 2.68202 | 101.87389 | 11053 ft | 288 kts | 175° |
| 2026-05-03 22:59 | 2.66238 | 101.87494 | 10748 ft | 285 kts | 176° |
| 2026-05-03 23:00 | 2.64253 | 101.87578 | 10290 ft | 286 kts | 178° |
| 2026-05-03 23:00 | 2.62285 | 101.87648 | 9958 ft | 283 kts | 177° |
| 2026-05-03 23:00 | 2.60324 | 101.87609 | 9553 ft | 281 kts | 190° |
| 2026-05-03 23:00 | 2.58555 | 101.86843 | 9154 ft | 278 kts | 216° |
| 2026-05-03 23:01 | 2.57310 | 101.85394 | 8723 ft | 276 kts | 242° |
| 2026-05-03 23:01 | 2.56831 | 101.83574 | 8429 ft | 269 kts | 265° |
| 2026-05-03 23:01 | 2.57019 | 101.81738 | 8121 ft | 265 kts | 284° |
| 2026-05-03 23:01 | 2.57860 | 101.80103 | 7634 ft | 269 kts | 309° |
| 2026-05-03 23:02 | 2.59331 | 101.78963 | 7248 ft | 268 kts | 332° |
| 2026-05-03 23:02 | 2.61096 | 101.78579 | 7043 ft | 260 kts | 359° |
| 2026-05-03 23:02 | 2.62814 | 101.78886 | 7000 ft | 247 kts | 3° |
| 2026-05-03 23:02 | 2.64522 | 101.78565 | 5919 ft | 264 kts | 326° |
| 2026-05-03 23:03 | 2.65757 | 101.77143 | 4517 ft | 278 kts | 297° |
| 2026-05-03 23:03 | 2.66375 | 101.75461 | 4471 ft | 231 kts | 291° |
| 2026-05-03 23:03 | 2.66889 | 101.74023 | 4064 ft | 213 kts | 275° |
| 2026-05-03 23:03 | 2.66483 | 101.72658 | 3137 ft | 215 kts | 229° |
| 2026-05-03 23:04 | 2.65158 | 101.71984 | 2386 ft | 209 kts | 191° |
| 2026-05-03 23:04 | 2.63839 | 101.72063 | 2257 ft | 179 kts | 170° |
| 2026-05-03 23:04 | 2.62691 | 101.72454 | 1986 ft | 168 kts | 152° |
| 2026-05-03 23:04 | 2.61840 | 101.73162 | 1755 ft | 159 kts | 121° |
| 2026-05-03 23:05 | 2.61755 | 101.74227 | 1257 ft | 163 kts | 68° |
| 2026-05-03 23:05 | 2.62620 | 101.74863 | 874 ft | 161 kts | 12° |
| 2026-05-03 23:05 | 2.63681 | 101.74736 | 907 ft | 144 kts | 351° |
| 2026-05-03 23:05 | 2.64666 | 101.74499 | 961 ft | 151 kts | 342° |
| 2026-05-03 23:06 | 2.65664 | 101.74114 | 1070 ft | 154 kts | 337° |
| 2026-05-03 23:06 | 2.66681 | 101.73839 | 1169 ft | 152 kts | 346° |
| 2026-05-03 23:06 | 2.67747 | 101.73689 | 1044 ft | 158 kts | 347° |
| 2026-05-03 23:06 | 2.68822 | 101.73407 | 804 ft | 159 kts | 336° |
| 2026-05-03 23:07 | 2.69781 | 101.72864 | 540 ft | 160 kts | 323° |
| 2026-05-03 23:07 | 2.70701 | 101.72225 | 271 ft | 158 kts | 322° |
| 2026-05-03 23:07 | 2.71598 | 101.71629 | 95 ft | 151 kts | 322° |
| 2026-05-03 23:07 | 2.72418 | 101.71067 | 84 ft | 128 kts | 326° |
| 2026-05-03 23:08 | 2.72980 | 101.70679 | 84 ft | 68 kts | 329° |
| 2026-05-03 23:08 | 2.73273 | 101.70501 | 83 ft | 38 kts | 341° |
| 2026-05-03 23:08 | 2.73457 | 101.70464 | 83 ft | 15 kts | 353° |
| 2026-05-03 23:08 | 2.73474 | 101.70462 | 83 ft | 0 kts | 354° |
| 2026-05-03 23:09 | 2.73495 | 101.70461 | 83 ft | 11 kts | 357° |
| 2026-05-03 23:09 | 2.73569 | 101.70457 | 83 ft | 10 kts | 358° |
| 2026-05-03 23:10 | 2.73690 | 101.70439 | 83 ft | 22 kts | 341° |
| 2026-05-03 23:10 | 2.73817 | 101.70362 | 83 ft | 20 kts | 328° |
| 2026-05-03 23:10 | 2.73932 | 101.70290 | 83 ft | 19 kts | 328° |
| 2026-05-03 23:10 | 2.74035 | 101.70207 | 83 ft | 18 kts | 328° |
| 2026-05-03 23:11 | 2.74142 | 101.70144 | 83 ft | 17 kts | 326° |
| 2026-05-03 23:11 | 2.74240 | 101.70082 | 83 ft | 16 kts | 330° |
| 2026-05-03 23:11 | 2.74333 | 101.70020 | 83 ft | 16 kts | 323° |
| 2026-05-03 23:11 | 2.74420 | 101.69963 | 83 ft | 15 kts | 337° |
| 2026-05-03 23:12 | 2.74509 | 101.69988 | 83 ft | 14 kts | 21° |
| 2026-05-03 23:12 | 2.74595 | 101.69958 | 83 ft | 13 kts | 326° |
| 2026-05-03 23:12 | 2.74675 | 101.69940 | 83 ft | 12 kts | 38° |
| 2026-05-03 23:12 | 2.74725 | 101.70005 | 83 ft | 11 kts | 55° |
| 2026-05-03 23:13 | 2.74770 | 101.70067 | 83 ft | 11 kts | 56° |
| 2026-05-03 23:13 | 2.74810 | 101.70127 | 83 ft | 10 kts | 57° |
| 2026-05-03 23:13 | 2.74852 | 101.70178 | 83 ft | 9 kts | 54° |
| 2026-05-03 23:13 | 2.74885 | 101.70233 | 83 ft | 9 kts | 61° |
| 2026-05-03 23:14 | 2.74919 | 101.70284 | 83 ft | 9 kts | 51° |
| 2026-05-03 23:14 | 2.74969 | 101.70287 | 83 ft | 8 kts | 321° |
| 2026-05-03 23:14 | 2.75015 | 101.70259 | 83 ft | 0 kts | 327° |
| 2026-05-03 23:15 | 2.75011 | 101.70258 | 83 ft | 0 kts | 326° |